sensor_id;sensor_type;location;lat;lon;timestamp;P1;durP1;ratioP1;P2;durP2;ratioP2
36653;SDS011;22650;49.350;20.898;2023-06-10T00:00:49;5.40;;;3.78;;
36653;SDS011;22650;49.350;20.898;2023-06-10T00:03:23;5.82;;;3.78;;
36653;SDS011;22650;49.350;20.898;2023-06-10T00:05:57;8.82;;;3.92;;
36653;SDS011;22650;49.350;20.898;2023-06-10T00:08:31;4.68;;;4.10;;
36653;SDS011;22650;49.350;20.898;2023-06-10T00:11:04;6.07;;;3.97;;
36653;SDS011;22650;49.350;20.898;2023-06-10T00:13:39;6.88;;;3.80;;
36653;SDS011;22650;49.350;20.898;2023-06-10T00:16:13;5.93;;;3.83;;
36653;SDS011;22650;49.350;20.898;2023-06-10T00:18:49;7.53;;;3.97;;
36653;SDS011;22650;49.350;20.898;2023-06-10T00:21:24;5.95;;;3.83;;
36653;SDS011;22650;49.350;20.898;2023-06-10T00:23:57;6.25;;;3.72;;
36653;SDS011;22650;49.350;20.898;2023-06-10T00:26:34;7.05;;;3.75;;
36653;SDS011;22650;49.350;20.898;2023-06-10T00:29:09;5.20;;;4.28;;
36653;SDS011;22650;49.350;20.898;2023-06-10T00:31:44;4.38;;;3.45;;
36653;SDS011;22650;49.350;20.898;2023-06-10T00:34:18;7.50;;;3.97;;
36653;SDS011;22650;49.350;20.898;2023-06-10T00:36:52;4.75;;;3.33;;
36653;SDS011;22650;49.350;20.898;2023-06-10T00:39:27;4.60;;;3.33;;
36653;SDS011;22650;49.350;20.898;2023-06-10T00:42:00;8.30;;;3.30;;
36653;SDS011;22650;49.350;20.898;2023-06-10T00:44:40;5.20;;;3.58;;
36653;SDS011;22650;49.350;20.898;2023-06-10T00:47:14;4.10;;;3.25;;
36653;SDS011;22650;49.350;20.898;2023-06-10T00:49:48;7.88;;;3.40;;
36653;SDS011;22650;49.350;20.898;2023-06-10T00:52:23;8.43;;;3.17;;
36653;SDS011;22650;49.350;20.898;2023-06-10T00:55:00;5.20;;;3.65;;
36653;SDS011;22650;49.350;20.898;2023-06-10T00:57:34;5.15;;;3.35;;
36653;SDS011;22650;49.350;20.898;2023-06-10T01:00:09;5.15;;;3.45;;
36653;SDS011;22650;49.350;20.898;2023-06-10T01:02:44;4.53;;;3.35;;
36653;SDS011;22650;49.350;20.898;2023-06-10T01:05:17;7.90;;;3.65;;
36653;SDS011;22650;49.350;20.898;2023-06-10T01:07:56;4.28;;;3.20;;
36653;SDS011;22650;49.350;20.898;2023-06-10T01:10:35;5.50;;;3.30;;
36653;SDS011;22650;49.350;20.898;2023-06-10T01:13:11;5.88;;;2.92;;
36653;SDS011;22650;49.350;20.898;2023-06-10T01:15:47;13.20;;;3.95;;
36653;SDS011;22650;49.350;20.898;2023-06-10T01:18:21;4.72;;;3.33;;
36653;SDS011;22650;49.350;20.898;2023-06-10T01:20:55;4.82;;;3.20;;
36653;SDS011;22650;49.350;20.898;2023-06-10T01:23:30;4.55;;;2.95;;
36653;SDS011;22650;49.350;20.898;2023-06-10T01:26:04;6.82;;;3.20;;
36653;SDS011;22650;49.350;20.898;2023-06-10T01:28:44;9.80;;;4.47;;
36653;SDS011;22650;49.350;20.898;2023-06-10T01:31:23;5.00;;;3.35;;
36653;SDS011;22650;49.350;20.898;2023-06-10T01:34:08;15.52;;;4.10;;
36653;SDS011;22650;49.350;20.898;2023-06-10T01:36:45;5.82;;;3.97;;
36653;SDS011;22650;49.350;20.898;2023-06-10T01:39:22;19.15;;;4.53;;
36653;SDS011;22650;49.350;20.898;2023-06-10T01:41:57;5.43;;;3.60;;
36653;SDS011;22650;49.350;20.898;2023-06-10T01:44:31;4.75;;;3.92;;
36653;SDS011;22650;49.350;20.898;2023-06-10T01:47:05;5.90;;;4.07;;
36653;SDS011;22650;49.350;20.898;2023-06-10T01:49:39;8.93;;;3.70;;
36653;SDS011;22650;49.350;20.898;2023-06-10T01:52:12;8.02;;;4.53;;
36653;SDS011;22650;49.350;20.898;2023-06-10T01:54:47;9.82;;;4.40;;
36653;SDS011;22650;49.350;20.898;2023-06-10T01:57:21;7.57;;;3.78;;
36653;SDS011;22650;49.350;20.898;2023-06-10T01:59:54;6.80;;;3.67;;
36653;SDS011;22650;49.350;20.898;2023-06-10T02:02:28;6.03;;;4.15;;
36653;SDS011;22650;49.350;20.898;2023-06-10T02:05:03;5.72;;;4.13;;
36653;SDS011;22650;49.350;20.898;2023-06-10T02:07:38;5.95;;;3.67;;
36653;SDS011;22650;49.350;20.898;2023-06-10T02:10:13;5.22;;;3.85;;
36653;SDS011;22650;49.350;20.898;2023-06-10T02:12:46;7.72;;;3.17;;
36653;SDS011;22650;49.350;20.898;2023-06-10T02:15:20;7.97;;;4.38;;
36653;SDS011;22650;49.350;20.898;2023-06-10T02:17:53;8.68;;;3.95;;
36653;SDS011;22650;49.350;20.898;2023-06-10T02:20:28;9.07;;;4.95;;
36653;SDS011;22650;49.350;20.898;2023-06-10T02:23:01;7.68;;;4.20;;
36653;SDS011;22650;49.350;20.898;2023-06-10T02:25:36;8.10;;;4.57;;
36653;SDS011;22650;49.350;20.898;2023-06-10T02:28:10;8.02;;;4.28;;
36653;SDS011;22650;49.350;20.898;2023-06-10T02:30:44;9.00;;;5.05;;
36653;SDS011;22650;49.350;20.898;2023-06-10T02:33:19;6.15;;;4.35;;
36653;SDS011;22650;49.350;20.898;2023-06-10T02:35:52;6.22;;;4.32;;
36653;SDS011;22650;49.350;20.898;2023-06-10T02:38:27;18.38;;;5.25;;
36653;SDS011;22650;49.350;20.898;2023-06-10T02:41:03;10.30;;;5.53;;
36653;SDS011;22650;49.350;20.898;2023-06-10T02:43:36;10.02;;;5.45;;
36653;SDS011;22650;49.350;20.898;2023-06-10T02:46:11;9.23;;;5.68;;
36653;SDS011;22650;49.350;20.898;2023-06-10T02:48:45;15.73;;;6.28;;
36653;SDS011;22650;49.350;20.898;2023-06-10T02:51:24;10.35;;;6.30;;
36653;SDS011;22650;49.350;20.898;2023-06-10T02:54:03;12.63;;;5.03;;
36653;SDS011;22650;49.350;20.898;2023-06-10T02:56:40;6.82;;;4.47;;
36653;SDS011;22650;49.350;20.898;2023-06-10T02:59:21;7.72;;;4.85;;
36653;SDS011;22650;49.350;20.898;2023-06-10T03:01:54;9.73;;;3.97;;
36653;SDS011;22650;49.350;20.898;2023-06-10T03:04:29;7.32;;;4.45;;
36653;SDS011;22650;49.350;20.898;2023-06-10T03:07:09;7.10;;;4.32;;
36653;SDS011;22650;49.350;20.898;2023-06-10T03:09:42;7.78;;;4.75;;
36653;SDS011;22650;49.350;20.898;2023-06-10T03:12:19;9.07;;;4.82;;
36653;SDS011;22650;49.350;20.898;2023-06-10T03:14:53;12.52;;;5.45;;
36653;SDS011;22650;49.350;20.898;2023-06-10T03:17:27;7.95;;;4.63;;
36653;SDS011;22650;49.350;20.898;2023-06-10T03:20:00;7.75;;;4.75;;
36653;SDS011;22650;49.350;20.898;2023-06-10T03:22:34;8.35;;;5.20;;
36653;SDS011;22650;49.350;20.898;2023-06-10T03:25:13;10.45;;;5.80;;
36653;SDS011;22650;49.350;20.898;2023-06-10T03:27:52;13.25;;;8.25;;
36653;SDS011;22650;49.350;20.898;2023-06-10T03:30:26;13.18;;;7.78;;
36653;SDS011;22650;49.350;20.898;2023-06-10T03:33:00;10.63;;;6.93;;
36653;SDS011;22650;49.350;20.898;2023-06-10T03:35:34;7.10;;;4.55;;
36653;SDS011;22650;49.350;20.898;2023-06-10T03:38:09;6.43;;;4.32;;
36653;SDS011;22650;49.350;20.898;2023-06-10T03:40:44;8.88;;;5.35;;
36653;SDS011;22650;49.350;20.898;2023-06-10T03:43:19;6.28;;;4.22;;
36653;SDS011;22650;49.350;20.898;2023-06-10T03:45:55;9.77;;;4.78;;
36653;SDS011;22650;49.350;20.898;2023-06-10T03:48:28;14.63;;;5.20;;
36653;SDS011;22650;49.350;20.898;2023-06-10T03:51:03;5.53;;;3.75;;
36653;SDS011;22650;49.350;20.898;2023-06-10T03:53:37;6.00;;;3.90;;
36653;SDS011;22650;49.350;20.898;2023-06-10T03:56:11;7.53;;;4.72;;
36653;SDS011;22650;49.350;20.898;2023-06-10T03:58:46;5.60;;;4.40;;
36653;SDS011;22650;49.350;20.898;2023-06-10T04:01:20;5.25;;;3.85;;
36653;SDS011;22650;49.350;20.898;2023-06-10T04:03:55;8.20;;;4.85;;
36653;SDS011;22650;49.350;20.898;2023-06-10T04:06:29;6.65;;;4.40;;
36653;SDS011;22650;49.350;20.898;2023-06-10T04:09:03;5.47;;;3.75;;
36653;SDS011;22650;49.350;20.898;2023-06-10T04:11:37;5.32;;;3.90;;
36653;SDS011;22650;49.350;20.898;2023-06-10T04:14:12;5.18;;;4.05;;
36653;SDS011;22650;49.350;20.898;2023-06-10T04:16:49;12.85;;;4.38;;
36653;SDS011;22650;49.350;20.898;2023-06-10T04:19:23;8.20;;;4.15;;
36653;SDS011;22650;49.350;20.898;2023-06-10T04:21:57;5.13;;;4.10;;
36653;SDS011;22650;49.350;20.898;2023-06-10T04:24:31;9.02;;;4.28;;
36653;SDS011;22650;49.350;20.898;2023-06-10T04:27:05;5.45;;;4.57;;
36653;SDS011;22650;49.350;20.898;2023-06-10T04:29:40;4.80;;;3.45;;
36653;SDS011;22650;49.350;20.898;2023-06-10T04:32:14;6.15;;;4.00;;
36653;SDS011;22650;49.350;20.898;2023-06-10T04:34:48;7.15;;;3.50;;
36653;SDS011;22650;49.350;20.898;2023-06-10T04:37:23;4.82;;;3.58;;
36653;SDS011;22650;49.350;20.898;2023-06-10T04:39:56;5.03;;;3.15;;
36653;SDS011;22650;49.350;20.898;2023-06-10T04:42:31;5.38;;;3.38;;
36653;SDS011;22650;49.350;20.898;2023-06-10T04:45:07;6.50;;;4.30;;
36653;SDS011;22650;49.350;20.898;2023-06-10T04:47:42;3.97;;;3.30;;
36653;SDS011;22650;49.350;20.898;2023-06-10T04:50:15;5.43;;;3.63;;
36653;SDS011;22650;49.350;20.898;2023-06-10T04:52:49;7.63;;;3.80;;
36653;SDS011;22650;49.350;20.898;2023-06-10T04:55:23;7.75;;;3.65;;
36653;SDS011;22650;49.350;20.898;2023-06-10T04:57:57;4.32;;;3.40;;
36653;SDS011;22650;49.350;20.898;2023-06-10T05:00:32;5.45;;;3.90;;
36653;SDS011;22650;49.350;20.898;2023-06-10T05:03:05;5.55;;;3.63;;
36653;SDS011;22650;49.350;20.898;2023-06-10T05:05:39;4.18;;;3.20;;
36653;SDS011;22650;49.350;20.898;2023-06-10T05:08:12;5.57;;;4.07;;
36653;SDS011;22650;49.350;20.898;2023-06-10T05:10:46;5.70;;;3.90;;
36653;SDS011;22650;49.350;20.898;2023-06-10T05:13:20;7.75;;;3.65;;
36653;SDS011;22650;49.350;20.898;2023-06-10T05:15:55;4.55;;;3.47;;
36653;SDS011;22650;49.350;20.898;2023-06-10T05:18:29;6.53;;;4.22;;
36653;SDS011;22650;49.350;20.898;2023-06-10T05:21:03;7.90;;;4.00;;
36653;SDS011;22650;49.350;20.898;2023-06-10T05:23:36;5.00;;;3.63;;
36653;SDS011;22650;49.350;20.898;2023-06-10T05:26:10;5.70;;;3.90;;
36653;SDS011;22650;49.350;20.898;2023-06-10T05:28:44;6.05;;;3.80;;
36653;SDS011;22650;49.350;20.898;2023-06-10T05:31:19;6.03;;;3.70;;
36653;SDS011;22650;49.350;20.898;2023-06-10T05:33:52;8.07;;;4.13;;
36653;SDS011;22650;49.350;20.898;2023-06-10T05:36:26;3.58;;;3.22;;
36653;SDS011;22650;49.350;20.898;2023-06-10T05:39:00;6.30;;;3.63;;
36653;SDS011;22650;49.350;20.898;2023-06-10T05:41:35;6.88;;;4.43;;
36653;SDS011;22650;49.350;20.898;2023-06-10T05:44:09;5.72;;;3.50;;
36653;SDS011;22650;49.350;20.898;2023-06-10T05:46:46;4.20;;;3.17;;
36653;SDS011;22650;49.350;20.898;2023-06-10T05:49:20;3.97;;;3.00;;
36653;SDS011;22650;49.350;20.898;2023-06-10T05:51:53;3.63;;;2.65;;
36653;SDS011;22650;49.350;20.898;2023-06-10T05:54:27;4.28;;;2.95;;
36653;SDS011;22650;49.350;20.898;2023-06-10T05:57:01;4.40;;;2.95;;
36653;SDS011;22650;49.350;20.898;2023-06-10T05:59:35;3.78;;;2.90;;
36653;SDS011;22650;49.350;20.898;2023-06-10T06:02:10;4.97;;;3.30;;
36653;SDS011;22650;49.350;20.898;2023-06-10T06:04:44;4.47;;;3.65;;
36653;SDS011;22650;49.350;20.898;2023-06-10T06:07:17;14.68;;;3.30;;
36653;SDS011;22650;49.350;20.898;2023-06-10T06:09:52;3.70;;;2.92;;
36653;SDS011;22650;49.350;20.898;2023-06-10T06:12:26;5.03;;;3.88;;
36653;SDS011;22650;49.350;20.898;2023-06-10T06:14:59;5.80;;;2.88;;
36653;SDS011;22650;49.350;20.898;2023-06-10T06:17:35;4.63;;;3.13;;
36653;SDS011;22650;49.350;20.898;2023-06-10T06:20:09;6.07;;;2.95;;
36653;SDS011;22650;49.350;20.898;2023-06-10T06:22:43;3.88;;;2.90;;
36653;SDS011;22650;49.350;20.898;2023-06-10T06:25:17;4.20;;;2.60;;
36653;SDS011;22650;49.350;20.898;2023-06-10T06:27:50;4.18;;;3.08;;
36653;SDS011;22650;49.350;20.898;2023-06-10T06:30:24;4.07;;;2.70;;
36653;SDS011;22650;49.350;20.898;2023-06-10T06:32:59;3.00;;;2.67;;
36653;SDS011;22650;49.350;20.898;2023-06-10T06:35:33;3.75;;;2.75;;
36653;SDS011;22650;49.350;20.898;2023-06-10T06:38:06;3.67;;;2.72;;
36653;SDS011;22650;49.350;20.898;2023-06-10T06:40:40;3.67;;;2.92;;
36653;SDS011;22650;49.350;20.898;2023-06-10T06:43:14;4.20;;;2.75;;
36653;SDS011;22650;49.350;20.898;2023-06-10T06:46:15;4.90;;;2.70;;
36653;SDS011;22650;49.350;20.898;2023-06-10T06:48:50;5.55;;;2.92;;
36653;SDS011;22650;49.350;20.898;2023-06-10T06:51:24;3.25;;;2.78;;
36653;SDS011;22650;49.350;20.898;2023-06-10T06:53:59;12.43;;;3.55;;
36653;SDS011;22650;49.350;20.898;2023-06-10T06:56:33;5.00;;;2.67;;
36653;SDS011;22650;49.350;20.898;2023-06-10T06:59:06;5.72;;;3.15;;
36653;SDS011;22650;49.350;20.898;2023-06-10T07:01:40;3.35;;;3.00;;
36653;SDS011;22650;49.350;20.898;2023-06-10T07:04:15;6.78;;;3.45;;
36653;SDS011;22650;49.350;20.898;2023-06-10T07:06:51;4.55;;;3.58;;
36653;SDS011;22650;49.350;20.898;2023-06-10T07:09:25;7.85;;;3.40;;
36653;SDS011;22650;49.350;20.898;2023-06-10T07:11:59;17.15;;;5.13;;
36653;SDS011;22650;49.350;20.898;2023-06-10T07:14:33;12.32;;;3.92;;
36653;SDS011;22650;49.350;20.898;2023-06-10T07:17:07;7.10;;;4.65;;
36653;SDS011;22650;49.350;20.898;2023-06-10T07:19:43;8.10;;;4.72;;
36653;SDS011;22650;49.350;20.898;2023-06-10T07:22:18;5.97;;;4.45;;
36653;SDS011;22650;49.350;20.898;2023-06-10T07:24:53;12.02;;;4.97;;
36653;SDS011;22650;49.350;20.898;2023-06-10T07:27:27;6.90;;;5.13;;
36653;SDS011;22650;49.350;20.898;2023-06-10T07:30:01;9.65;;;5.85;;
36653;SDS011;22650;49.350;20.898;2023-06-10T07:32:35;9.32;;;5.63;;
36653;SDS011;22650;49.350;20.898;2023-06-10T07:35:10;15.30;;;6.70;;
36653;SDS011;22650;49.350;20.898;2023-06-10T07:37:44;8.52;;;5.30;;
36653;SDS011;22650;49.350;20.898;2023-06-10T07:40:18;10.25;;;5.53;;
36653;SDS011;22650;49.350;20.898;2023-06-10T07:42:52;10.88;;;5.32;;
36653;SDS011;22650;49.350;20.898;2023-06-10T07:45:26;12.57;;;5.75;;
36653;SDS011;22650;49.350;20.898;2023-06-10T07:48:00;10.05;;;5.25;;
36653;SDS011;22650;49.350;20.898;2023-06-10T07:50:35;14.10;;;5.80;;
36653;SDS011;22650;49.350;20.898;2023-06-10T07:53:08;8.73;;;5.45;;
36653;SDS011;22650;49.350;20.898;2023-06-10T07:55:42;8.38;;;5.28;;
36653;SDS011;22650;49.350;20.898;2023-06-10T07:58:16;8.20;;;4.53;;
36653;SDS011;22650;49.350;20.898;2023-06-10T08:00:51;7.57;;;5.38;;
36653;SDS011;22650;49.350;20.898;2023-06-10T08:03:25;10.90;;;5.43;;
36653;SDS011;22650;49.350;20.898;2023-06-10T08:06:00;8.00;;;5.18;;
36653;SDS011;22650;49.350;20.898;2023-06-10T08:08:34;13.18;;;6.30;;
36653;SDS011;22650;49.350;20.898;2023-06-10T08:11:13;10.95;;;5.22;;
36653;SDS011;22650;49.350;20.898;2023-06-10T08:13:46;7.55;;;5.03;;
36653;SDS011;22650;49.350;20.898;2023-06-10T08:16:20;7.25;;;4.90;;
36653;SDS011;22650;49.350;20.898;2023-06-10T08:18:53;10.48;;;5.40;;
36653;SDS011;22650;49.350;20.898;2023-06-10T08:21:29;8.23;;;4.90;;
36653;SDS011;22650;49.350;20.898;2023-06-10T08:24:03;11.77;;;4.95;;
36653;SDS011;22650;49.350;20.898;2023-06-10T08:26:37;10.50;;;5.28;;
36653;SDS011;22650;49.350;20.898;2023-06-10T08:29:11;8.25;;;5.25;;
36653;SDS011;22650;49.350;20.898;2023-06-10T08:31:46;8.25;;;5.75;;
36653;SDS011;22650;49.350;20.898;2023-06-10T08:34:19;9.35;;;5.07;;
36653;SDS011;22650;49.350;20.898;2023-06-10T08:36:54;7.88;;;5.50;;
36653;SDS011;22650;49.350;20.898;2023-06-10T08:39:28;9.05;;;5.60;;
36653;SDS011;22650;49.350;20.898;2023-06-10T08:42:07;12.85;;;6.10;;
36653;SDS011;22650;49.350;20.898;2023-06-10T08:44:47;7.93;;;6.40;;
36653;SDS011;22650;49.350;20.898;2023-06-10T08:47:25;9.02;;;6.50;;
36653;SDS011;22650;49.350;20.898;2023-06-10T08:50:04;10.98;;;6.88;;
36653;SDS011;22650;49.350;20.898;2023-06-10T08:52:44;10.52;;;6.55;;
36653;SDS011;22650;49.350;20.898;2023-06-10T08:55:23;10.50;;;7.43;;
36653;SDS011;22650;49.350;20.898;2023-06-10T08:58:03;13.75;;;7.70;;
36653;SDS011;22650;49.350;20.898;2023-06-10T09:00:37;9.40;;;7.20;;
36653;SDS011;22650;49.350;20.898;2023-06-10T09:03:11;10.38;;;6.78;;
36653;SDS011;22650;49.350;20.898;2023-06-10T09:05:46;9.98;;;6.93;;
36653;SDS011;22650;49.350;20.898;2023-06-10T09:08:21;8.82;;;7.18;;
36653;SDS011;22650;49.350;20.898;2023-06-10T09:10:55;12.75;;;7.32;;
36653;SDS011;22650;49.350;20.898;2023-06-10T09:13:29;8.52;;;6.45;;
36653;SDS011;22650;49.350;20.898;2023-06-10T09:16:03;10.88;;;6.85;;
36653;SDS011;22650;49.350;20.898;2023-06-10T09:18:37;12.38;;;6.55;;
36653;SDS011;22650;49.350;20.898;2023-06-10T09:21:11;16.83;;;6.00;;
36653;SDS011;22650;49.350;20.898;2023-06-10T09:23:46;10.15;;;7.00;;
36653;SDS011;22650;49.350;20.898;2023-06-10T09:26:20;8.90;;;6.30;;
36653;SDS011;22650;49.350;20.898;2023-06-10T09:29:03;8.98;;;5.28;;
36653;SDS011;22650;49.350;20.898;2023-06-10T09:31:38;8.80;;;5.63;;
36653;SDS011;22650;49.350;20.898;2023-06-10T09:34:13;10.57;;;5.65;;
36653;SDS011;22650;49.350;20.898;2023-06-10T09:36:48;9.40;;;5.95;;
36653;SDS011;22650;49.350;20.898;2023-06-10T09:39:23;7.97;;;6.28;;
36653;SDS011;22650;49.350;20.898;2023-06-10T09:41:56;16.55;;;6.32;;
36653;SDS011;22650;49.350;20.898;2023-06-10T09:44:30;9.40;;;6.75;;
36653;SDS011;22650;49.350;20.898;2023-06-10T09:47:04;8.45;;;6.13;;
36653;SDS011;22650;49.350;20.898;2023-06-10T09:49:38;9.55;;;7.00;;
36653;SDS011;22650;49.350;20.898;2023-06-10T09:52:13;9.32;;;7.47;;
36653;SDS011;22650;49.350;20.898;2023-06-10T09:54:48;11.10;;;6.97;;
36653;SDS011;22650;49.350;20.898;2023-06-10T09:57:22;17.27;;;7.63;;
36653;SDS011;22650;49.350;20.898;2023-06-10T09:59:55;9.45;;;7.05;;
36653;SDS011;22650;49.350;20.898;2023-06-10T10:02:29;11.07;;;7.20;;
36653;SDS011;22650;49.350;20.898;2023-06-10T10:05:03;7.70;;;6.65;;
36653;SDS011;22650;49.350;20.898;2023-06-10T10:07:38;8.05;;;6.47;;
36653;SDS011;22650;49.350;20.898;2023-06-10T10:10:15;11.95;;;6.82;;
36653;SDS011;22650;49.350;20.898;2023-06-10T10:12:51;9.57;;;7.55;;
36653;SDS011;22650;49.350;20.898;2023-06-10T10:15:28;13.13;;;7.70;;
36653;SDS011;22650;49.350;20.898;2023-06-10T10:18:05;10.13;;;8.25;;
36653;SDS011;22650;49.350;20.898;2023-06-10T10:20:41;12.82;;;8.20;;
36653;SDS011;22650;49.350;20.898;2023-06-10T10:23:21;10.13;;;8.20;;
36653;SDS011;22650;49.350;20.898;2023-06-10T10:25:59;13.40;;;8.52;;
36653;SDS011;22650;49.350;20.898;2023-06-10T10:28:37;14.52;;;9.30;;
36653;SDS011;22650;49.350;20.898;2023-06-10T10:33:53;14.02;;;7.65;;
36653;SDS011;22650;49.350;20.898;2023-06-10T10:36:34;12.55;;;9.18;;
36653;SDS011;22650;49.350;20.898;2023-06-10T10:39:08;13.32;;;9.45;;
36653;SDS011;22650;49.350;20.898;2023-06-10T10:41:45;13.95;;;9.35;;
36653;SDS011;22650;49.350;20.898;2023-06-10T10:44:20;10.77;;;8.50;;
36653;SDS011;22650;49.350;20.898;2023-06-10T10:46:55;12.18;;;9.90;;
36653;SDS011;22650;49.350;20.898;2023-06-10T10:49:29;22.38;;;13.18;;
36653;SDS011;22650;49.350;20.898;2023-06-10T10:52:10;27.75;;;15.95;;
36653;SDS011;22650;49.350;20.898;2023-06-10T10:54:45;13.40;;;9.63;;
36653;SDS011;22650;49.350;20.898;2023-06-10T10:57:21;11.57;;;8.25;;
36653;SDS011;22650;49.350;20.898;2023-06-10T10:59:57;15.68;;;9.93;;
36653;SDS011;22650;49.350;20.898;2023-06-10T11:02:35;16.40;;;9.82;;
36653;SDS011;22650;49.350;20.898;2023-06-10T11:05:13;15.40;;;9.80;;
36653;SDS011;22650;49.350;20.898;2023-06-10T11:07:51;9.98;;;7.65;;
36653;SDS011;22650;49.350;20.898;2023-06-10T11:10:30;13.48;;;8.23;;
36653;SDS011;22650;49.350;20.898;2023-06-10T11:13:07;16.80;;;11.90;;
36653;SDS011;22650;49.350;20.898;2023-06-10T11:15:43;16.63;;;9.75;;
36653;SDS011;22650;49.350;20.898;2023-06-10T11:18:22;12.20;;;7.70;;
36653;SDS011;22650;49.350;20.898;2023-06-10T11:20:57;7.85;;;6.75;;
36653;SDS011;22650;49.350;20.898;2023-06-10T11:23:33;7.63;;;5.75;;
36653;SDS011;22650;49.350;20.898;2023-06-10T11:26:20;10.35;;;6.93;;
36653;SDS011;22650;49.350;20.898;2023-06-10T11:29:09;8.68;;;6.97;;
36653;SDS011;22650;49.350;20.898;2023-06-10T11:31:44;8.73;;;7.35;;
36653;SDS011;22650;49.350;20.898;2023-06-10T11:34:22;12.57;;;6.65;;
36653;SDS011;22650;49.350;20.898;2023-06-10T11:36:58;10.77;;;7.82;;
36653;SDS011;22650;49.350;20.898;2023-06-10T11:39:32;12.98;;;9.07;;
36653;SDS011;22650;49.350;20.898;2023-06-10T11:42:06;8.05;;;6.53;;
36653;SDS011;22650;49.350;20.898;2023-06-10T11:44:44;11.68;;;7.00;;
36653;SDS011;22650;49.350;20.898;2023-06-10T11:47:21;19.50;;;7.47;;
36653;SDS011;22650;49.350;20.898;2023-06-10T11:49:57;9.10;;;6.72;;
36653;SDS011;22650;49.350;20.898;2023-06-10T11:52:31;10.65;;;6.38;;
36653;SDS011;22650;49.350;20.898;2023-06-10T11:55:09;7.75;;;6.32;;
36653;SDS011;22650;49.350;20.898;2023-06-10T11:57:43;10.48;;;7.00;;
36653;SDS011;22650;49.350;20.898;2023-06-10T12:00:19;7.63;;;6.55;;
36653;SDS011;22650;49.350;20.898;2023-06-10T12:02:56;7.55;;;6.13;;
36653;SDS011;22650;49.350;20.898;2023-06-10T12:05:30;9.75;;;7.32;;
36653;SDS011;22650;49.350;20.898;2023-06-10T12:08:10;18.52;;;12.35;;
36653;SDS011;22650;49.350;20.898;2023-06-10T12:10:44;12.85;;;8.82;;
36653;SDS011;22650;49.350;20.898;2023-06-10T12:13:18;16.48;;;9.10;;
36653;SDS011;22650;49.350;20.898;2023-06-10T12:15:53;9.82;;;6.93;;
36653;SDS011;22650;49.350;20.898;2023-06-10T12:18:27;10.50;;;7.15;;
36653;SDS011;22650;49.350;20.898;2023-06-10T12:21:01;11.45;;;8.52;;
36653;SDS011;22650;49.350;20.898;2023-06-10T12:23:35;11.55;;;8.55;;
36653;SDS011;22650;49.350;20.898;2023-06-10T12:26:09;12.30;;;8.13;;
36653;SDS011;22650;49.350;20.898;2023-06-10T12:28:50;12.93;;;6.95;;
36653;SDS011;22650;49.350;20.898;2023-06-10T12:31:25;10.13;;;7.18;;
36653;SDS011;22650;49.350;20.898;2023-06-10T12:34:07;12.75;;;6.50;;
36653;SDS011;22650;49.350;20.898;2023-06-10T12:36:47;9.25;;;5.85;;
36653;SDS011;22650;49.350;20.898;2023-06-10T12:39:21;15.15;;;6.90;;
36653;SDS011;22650;49.350;20.898;2023-06-10T12:41:55;6.97;;;6.22;;
36653;SDS011;22650;49.350;20.898;2023-06-10T12:44:29;8.73;;;5.85;;
36653;SDS011;22650;49.350;20.898;2023-06-10T12:47:08;11.20;;;6.35;;
36653;SDS011;22650;49.350;20.898;2023-06-10T12:49:43;9.82;;;5.97;;
36653;SDS011;22650;49.350;20.898;2023-06-10T12:52:17;7.45;;;5.90;;
36653;SDS011;22650;49.350;20.898;2023-06-10T12:54:51;10.48;;;5.93;;
36653;SDS011;22650;49.350;20.898;2023-06-10T12:57:26;7.70;;;5.95;;
36653;SDS011;22650;49.350;20.898;2023-06-10T13:00:04;8.88;;;5.80;;
36653;SDS011;22650;49.350;20.898;2023-06-10T13:02:42;11.02;;;6.47;;
36653;SDS011;22650;49.350;20.898;2023-06-10T13:05:15;10.07;;;6.25;;
36653;SDS011;22650;49.350;20.898;2023-06-10T13:07:50;12.30;;;5.28;;
36653;SDS011;22650;49.350;20.898;2023-06-10T13:10:23;18.52;;;12.30;;
36653;SDS011;22650;49.350;20.898;2023-06-10T13:12:59;8.52;;;5.22;;
36653;SDS011;22650;49.350;20.898;2023-06-10T13:15:33;8.25;;;4.80;;
36653;SDS011;22650;49.350;20.898;2023-06-10T13:18:15;11.07;;;4.88;;
36653;SDS011;22650;49.350;20.898;2023-06-10T13:20:49;7.85;;;5.07;;
36653;SDS011;22650;49.350;20.898;2023-06-10T13:23:23;6.53;;;4.72;;
36653;SDS011;22650;49.350;20.898;2023-06-10T13:25:56;26.00;;;13.45;;
36653;SDS011;22650;49.350;20.898;2023-06-10T13:28:30;7.53;;;5.50;;
36653;SDS011;22650;49.350;20.898;2023-06-10T13:31:06;6.40;;;5.35;;
36653;SDS011;22650;49.350;20.898;2023-06-10T13:33:41;9.70;;;6.22;;
36653;SDS011;22650;49.350;20.898;2023-06-10T13:36:15;11.27;;;5.68;;
36653;SDS011;22650;49.350;20.898;2023-06-10T13:38:49;10.38;;;6.47;;
36653;SDS011;22650;49.350;20.898;2023-06-10T13:41:22;12.20;;;5.47;;
36653;SDS011;22650;49.350;20.898;2023-06-10T13:43:56;9.05;;;5.72;;
36653;SDS011;22650;49.350;20.898;2023-06-10T13:46:29;7.18;;;5.28;;
36653;SDS011;22650;49.350;20.898;2023-06-10T13:49:05;8.35;;;4.85;;
36653;SDS011;22650;49.350;20.898;2023-06-10T13:51:38;12.95;;;6.28;;
36653;SDS011;22650;49.350;20.898;2023-06-10T13:54:12;9.65;;;5.68;;
36653;SDS011;22650;49.350;20.898;2023-06-10T13:56:47;11.75;;;4.75;;
36653;SDS011;22650;49.350;20.898;2023-06-10T13:59:21;8.88;;;4.70;;
36653;SDS011;22650;49.350;20.898;2023-06-10T14:01:55;7.82;;;5.20;;
36653;SDS011;22650;49.350;20.898;2023-06-10T14:04:30;6.05;;;4.22;;
36653;SDS011;22650;49.350;20.898;2023-06-10T14:07:04;12.98;;;5.40;;
36653;SDS011;22650;49.350;20.898;2023-06-10T14:09:38;11.75;;;5.38;;
36653;SDS011;22650;49.350;20.898;2023-06-10T14:12:12;12.35;;;5.65;;
36653;SDS011;22650;49.350;20.898;2023-06-10T14:14:45;6.57;;;4.35;;
36653;SDS011;22650;49.350;20.898;2023-06-10T14:17:19;9.38;;;5.25;;
36653;SDS011;22650;49.350;20.898;2023-06-10T14:19:55;10.13;;;5.53;;
36653;SDS011;22650;49.350;20.898;2023-06-10T14:22:29;9.50;;;4.65;;
36653;SDS011;22650;49.350;20.898;2023-06-10T14:25:03;8.38;;;4.55;;
36653;SDS011;22650;49.350;20.898;2023-06-10T14:27:37;8.98;;;5.00;;
36653;SDS011;22650;49.350;20.898;2023-06-10T14:30:11;8.68;;;4.90;;
36653;SDS011;22650;49.350;20.898;2023-06-10T14:32:45;8.02;;;4.28;;
36653;SDS011;22650;49.350;20.898;2023-06-10T14:35:20;8.27;;;4.60;;
36653;SDS011;22650;49.350;20.898;2023-06-10T14:37:53;7.55;;;4.30;;
36653;SDS011;22650;49.350;20.898;2023-06-10T14:40:27;7.43;;;5.05;;
36653;SDS011;22650;49.350;20.898;2023-06-10T14:43:01;9.30;;;4.90;;
36653;SDS011;22650;49.350;20.898;2023-06-10T14:45:41;6.53;;;4.68;;
36653;SDS011;22650;49.350;20.898;2023-06-10T14:48:15;9.05;;;4.47;;
36653;SDS011;22650;49.350;20.898;2023-06-10T14:50:50;8.38;;;4.63;;
36653;SDS011;22650;49.350;20.898;2023-06-10T14:53:23;11.55;;;5.15;;
36653;SDS011;22650;49.350;20.898;2023-06-10T14:55:57;8.88;;;5.10;;
36653;SDS011;22650;49.350;20.898;2023-06-10T14:58:31;7.35;;;4.90;;
36653;SDS011;22650;49.350;20.898;2023-06-10T15:01:04;15.60;;;5.30;;
36653;SDS011;22650;49.350;20.898;2023-06-10T15:03:38;12.00;;;6.03;;
36653;SDS011;22650;49.350;20.898;2023-06-10T15:06:13;9.05;;;5.03;;
36653;SDS011;22650;49.350;20.898;2023-06-10T15:08:48;9.20;;;4.38;;
36653;SDS011;22650;49.350;20.898;2023-06-10T15:11:23;5.75;;;4.75;;
36653;SDS011;22650;49.350;20.898;2023-06-10T15:13:57;12.57;;;5.50;;
36653;SDS011;22650;49.350;20.898;2023-06-10T15:16:31;8.27;;;5.50;;
36653;SDS011;22650;49.350;20.898;2023-06-10T15:19:04;6.68;;;5.10;;